sensor_id;sensor_type;location;lat;lon;timestamp;temperature;humidity
28767;DHT22;15921;52.034;20.650;2024-03-25T00:00:28;3.40;99.90
28767;DHT22;15921;52.034;20.650;2024-03-25T00:02:55;3.40;99.90
28767;DHT22;15921;52.034;20.650;2024-03-25T00:05:21;3.50;99.90
28767;DHT22;15921;52.034;20.650;2024-03-25T00:07:51;3.60;99.90
28767;DHT22;15921;52.034;20.650;2024-03-25T00:10:18;3.60;99.90
28767;DHT22;15921;52.034;20.650;2024-03-25T00:12:46;3.60;99.90
28767;DHT22;15921;52.034;20.650;2024-03-25T00:15:12;3.70;99.90
28767;DHT22;15921;52.034;20.650;2024-03-25T00:17:38;3.70;99.90
28767;DHT22;15921;52.034;20.650;2024-03-25T00:20:05;3.70;99.90
28767;DHT22;15921;52.034;20.650;2024-03-25T00:22:32;3.80;99.90
28767;DHT22;15921;52.034;20.650;2024-03-25T00:24:57;3.90;99.90
28767;DHT22;15921;52.034;20.650;2024-03-25T00:27:23;3.90;99.90
28767;DHT22;15921;52.034;20.650;2024-03-25T00:29:48;3.90;99.90
28767;DHT22;15921;52.034;20.650;2024-03-25T00:32:14;4.00;99.90
28767;DHT22;15921;52.034;20.650;2024-03-25T00:34:40;4.00;99.90
28767;DHT22;15921;52.034;20.650;2024-03-25T00:37:06;4.00;99.90
28767;DHT22;15921;52.034;20.650;2024-03-25T00:39:31;4.00;99.90
28767;DHT22;15921;52.034;20.650;2024-03-25T00:41:58;4.10;99.90
28767;DHT22;15921;52.034;20.650;2024-03-25T00:44:24;4.10;99.90
28767;DHT22;15921;52.034;20.650;2024-03-25T00:46:50;4.10;99.90
28767;DHT22;15921;52.034;20.650;2024-03-25T00:49:16;4.10;99.90
28767;DHT22;15921;52.034;20.650;2024-03-25T00:51:42;4.10;99.90
28767;DHT22;15921;52.034;20.650;2024-03-25T00:54:08;4.10;99.90
28767;DHT22;15921;52.034;20.650;2024-03-25T00:56:34;4.10;99.90
28767;DHT22;15921;52.034;20.650;2024-03-25T00:58:59;4.10;99.90
28767;DHT22;15921;52.034;20.650;2024-03-25T01:01:33;4.10;99.90
28767;DHT22;15921;52.034;20.650;2024-03-25T01:04:04;4.20;99.90
28767;DHT22;15921;52.034;20.650;2024-03-25T01:06:30;4.10;99.90
28767;DHT22;15921;52.034;20.650;2024-03-25T01:08:55;4.10;99.90
28767;DHT22;15921;52.034;20.650;2024-03-25T01:11:21;4.10;99.90
28767;DHT22;15921;52.034;20.650;2024-03-25T01:13:48;4.10;99.90
28767;DHT22;15921;52.034;20.650;2024-03-25T01:16:13;4.10;99.90
28767;DHT22;15921;52.034;20.650;2024-03-25T01:18:39;4.10;99.90
28767;DHT22;15921;52.034;20.650;2024-03-25T01:21:05;4.00;99.90
28767;DHT22;15921;52.034;20.650;2024-03-25T01:23:31;3.90;99.90
28767;DHT22;15921;52.034;20.650;2024-03-25T01:25:56;3.90;99.90
28767;DHT22;15921;52.034;20.650;2024-03-25T01:28:22;3.80;99.90
28767;DHT22;15921;52.034;20.650;2024-03-25T01:30:48;3.80;99.90
28767;DHT22;15921;52.034;20.650;2024-03-25T01:33:14;3.80;99.90
28767;DHT22;15921;52.034;20.650;2024-03-25T01:35:40;3.70;99.90
28767;DHT22;15921;52.034;20.650;2024-03-25T01:38:06;3.80;99.90
28767;DHT22;15921;52.034;20.650;2024-03-25T01:40:33;3.80;99.90
28767;DHT22;15921;52.034;20.650;2024-03-25T01:43:03;3.80;99.90
28767;DHT22;15921;52.034;20.650;2024-03-25T01:45:31;3.80;99.90
28767;DHT22;15921;52.034;20.650;2024-03-25T01:47:57;3.80;99.90
28767;DHT22;15921;52.034;20.650;2024-03-25T01:50:25;3.80;99.90
28767;DHT22;15921;52.034;20.650;2024-03-25T01:52:51;3.80;99.90
28767;DHT22;15921;52.034;20.650;2024-03-25T01:55:20;3.80;99.90
28767;DHT22;15921;52.034;20.650;2024-03-25T01:57:47;3.90;99.90
28767;DHT22;15921;52.034;20.650;2024-03-25T02:00:14;3.90;99.90
28767;DHT22;15921;52.034;20.650;2024-03-25T02:02:42;3.90;99.90
28767;DHT22;15921;52.034;20.650;2024-03-25T02:05:10;3.90;99.90
28767;DHT22;15921;52.034;20.650;2024-03-25T02:07:36;3.90;99.90
28767;DHT22;15921;52.034;20.650;2024-03-25T02:10:03;3.90;99.90
28767;DHT22;15921;52.034;20.650;2024-03-25T02:12:33;3.90;99.90
28767;DHT22;15921;52.034;20.650;2024-03-25T02:14:59;4.00;99.90
28767;DHT22;15921;52.034;20.650;2024-03-25T02:17:25;4.00;99.90
28767;DHT22;15921;52.034;20.650;2024-03-25T02:19:51;3.90;99.90
28767;DHT22;15921;52.034;20.650;2024-03-25T02:22:17;3.90;99.90
28767;DHT22;15921;52.034;20.650;2024-03-25T02:24:45;3.80;99.90
28767;DHT22;15921;52.034;20.650;2024-03-25T02:27:12;3.80;99.90
28767;DHT22;15921;52.034;20.650;2024-03-25T02:29:40;3.80;99.90
28767;DHT22;15921;52.034;20.650;2024-03-25T02:32:09;3.70;99.90
28767;DHT22;15921;52.034;20.650;2024-03-25T02:34:37;3.60;99.90
28767;DHT22;15921;52.034;20.650;2024-03-25T02:37:04;3.60;99.90
28767;DHT22;15921;52.034;20.650;2024-03-25T02:39:31;3.50;99.90
28767;DHT22;15921;52.034;20.650;2024-03-25T02:41:57;3.50;99.90
28767;DHT22;15921;52.034;20.650;2024-03-25T02:44:23;3.40;99.90
28767;DHT22;15921;52.034;20.650;2024-03-25T02:46:49;3.40;99.90
28767;DHT22;15921;52.034;20.650;2024-03-25T02:49:15;3.30;99.90
28767;DHT22;15921;52.034;20.650;2024-03-25T02:51:41;3.30;99.90
28767;DHT22;15921;52.034;20.650;2024-03-25T02:54:06;3.30;99.90
28767;DHT22;15921;52.034;20.650;2024-03-25T02:56:34;3.40;99.90
28767;DHT22;15921;52.034;20.650;2024-03-25T02:59:01;3.30;99.90
28767;DHT22;15921;52.034;20.650;2024-03-25T03:01:26;3.30;99.90
28767;DHT22;15921;52.034;20.650;2024-03-25T03:03:52;3.30;99.90
28767;DHT22;15921;52.034;20.650;2024-03-25T03:06:18;3.30;99.90
28767;DHT22;15921;52.034;20.650;2024-03-25T03:08:44;3.20;99.90
28767;DHT22;15921;52.034;20.650;2024-03-25T03:11:10;3.20;99.90
28767;DHT22;15921;52.034;20.650;2024-03-25T03:13:36;3.20;99.90
28767;DHT22;15921;52.034;20.650;2024-03-25T03:16:01;3.10;99.90
28767;DHT22;15921;52.034;20.650;2024-03-25T03:18:27;3.00;99.90
28767;DHT22;15921;52.034;20.650;2024-03-25T03:20:53;3.00;99.90
28767;DHT22;15921;52.034;20.650;2024-03-25T03:23:22;2.90;99.90
28767;DHT22;15921;52.034;20.650;2024-03-25T03:25:48;2.90;99.90
28767;DHT22;15921;52.034;20.650;2024-03-25T03:28:14;2.90;99.90
28767;DHT22;15921;52.034;20.650;2024-03-25T03:30:43;2.80;99.90
28767;DHT22;15921;52.034;20.650;2024-03-25T03:33:09;2.80;99.90
28767;DHT22;15921;52.034;20.650;2024-03-25T03:35:34;2.70;99.90
28767;DHT22;15921;52.034;20.650;2024-03-25T03:38:00;2.70;99.90
28767;DHT22;15921;52.034;20.650;2024-03-25T03:40:26;2.70;99.90
28767;DHT22;15921;52.034;20.650;2024-03-25T03:42:52;2.60;99.90
28767;DHT22;15921;52.034;20.650;2024-03-25T03:45:17;2.60;99.90
28767;DHT22;15921;52.034;20.650;2024-03-25T03:47:43;2.60;99.90
28767;DHT22;15921;52.034;20.650;2024-03-25T03:50:09;2.70;99.90
28767;DHT22;15921;52.034;20.650;2024-03-25T03:52:35;2.70;99.90
28767;DHT22;15921;52.034;20.650;2024-03-25T03:55:01;2.60;99.90
28767;DHT22;15921;52.034;20.650;2024-03-25T03:57:26;2.60;99.90
28767;DHT22;15921;52.034;20.650;2024-03-25T03:59:52;2.60;99.90
28767;DHT22;15921;52.034;20.650;2024-03-25T04:02:18;2.60;99.90
28767;DHT22;15921;52.034;20.650;2024-03-25T04:04:43;2.60;99.90
28767;DHT22;15921;52.034;20.650;2024-03-25T04:07:10;2.70;99.90
28767;DHT22;15921;52.034;20.650;2024-03-25T04:09:35;2.70;99.90
28767;DHT22;15921;52.034;20.650;2024-03-25T04:12:01;2.70;99.90
28767;DHT22;15921;52.034;20.650;2024-03-25T04:14:27;2.70;99.90
28767;DHT22;15921;52.034;20.650;2024-03-25T04:16:52;2.70;99.90
28767;DHT22;15921;52.034;20.650;2024-03-25T04:19:27;2.70;99.90
28767;DHT22;15921;52.034;20.650;2024-03-25T04:21:53;2.80;99.90
28767;DHT22;15921;52.034;20.650;2024-03-25T04:24:19;2.80;99.90
28767;DHT22;15921;52.034;20.650;2024-03-25T04:26:45;2.80;99.90
28767;DHT22;15921;52.034;20.650;2024-03-25T04:29:11;2.90;99.90
28767;DHT22;15921;52.034;20.650;2024-03-25T04:31:37;2.90;99.90
28767;DHT22;15921;52.034;20.650;2024-03-25T04:34:03;3.00;99.90
28767;DHT22;15921;52.034;20.650;2024-03-25T04:36:30;3.00;99.90
28767;DHT22;15921;52.034;20.650;2024-03-25T04:38:56;3.00;99.90
28767;DHT22;15921;52.034;20.650;2024-03-25T04:41:22;3.10;99.90
28767;DHT22;15921;52.034;20.650;2024-03-25T04:43:48;3.10;99.90
28767;DHT22;15921;52.034;20.650;2024-03-25T04:46:14;3.10;99.90
28767;DHT22;15921;52.034;20.650;2024-03-25T04:48:40;3.10;99.90
28767;DHT22;15921;52.034;20.650;2024-03-25T04:51:06;3.10;99.90
28767;DHT22;15921;52.034;20.650;2024-03-25T04:53:32;3.20;99.90
28767;DHT22;15921;52.034;20.650;2024-03-25T04:55:57;3.30;99.90
28767;DHT22;15921;52.034;20.650;2024-03-25T04:58:23;3.30;99.90
28767;DHT22;15921;52.034;20.650;2024-03-25T05:00:49;3.40;99.90
28767;DHT22;15921;52.034;20.650;2024-03-25T05:03:14;3.50;99.90
28767;DHT22;15921;52.034;20.650;2024-03-25T05:05:40;3.60;99.90
28767;DHT22;15921;52.034;20.650;2024-03-25T05:08:06;3.60;99.90
28767;DHT22;15921;52.034;20.650;2024-03-25T05:10:32;3.80;99.90
28767;DHT22;15921;52.034;20.650;2024-03-25T05:12:57;3.90;99.90
28767;DHT22;15921;52.034;20.650;2024-03-25T05:15:23;4.00;99.90
28767;DHT22;15921;52.034;20.650;2024-03-25T05:17:49;4.00;99.90
28767;DHT22;15921;52.034;20.650;2024-03-25T05:20:14;4.10;99.90
28767;DHT22;15921;52.034;20.650;2024-03-25T05:22:40;4.20;99.90
28767;DHT22;15921;52.034;20.650;2024-03-25T05:25:06;4.20;99.90
28767;DHT22;15921;52.034;20.650;2024-03-25T05:27:32;4.30;99.90
28767;DHT22;15921;52.034;20.650;2024-03-25T05:29:57;4.40;99.90
28767;DHT22;15921;52.034;20.650;2024-03-25T05:32:23;4.40;99.90
28767;DHT22;15921;52.034;20.650;2024-03-25T05:34:49;4.40;99.90
28767;DHT22;15921;52.034;20.650;2024-03-25T05:37:14;4.50;99.90
28767;DHT22;15921;52.034;20.650;2024-03-25T05:39:40;4.40;99.90
28767;DHT22;15921;52.034;20.650;2024-03-25T05:42:06;4.40;99.90
28767;DHT22;15921;52.034;20.650;2024-03-25T05:44:32;4.50;99.90
28767;DHT22;15921;52.034;20.650;2024-03-25T05:46:57;4.60;99.90
28767;DHT22;15921;52.034;20.650;2024-03-25T05:49:23;4.60;99.90
28767;DHT22;15921;52.034;20.650;2024-03-25T05:51:49;4.60;99.90
28767;DHT22;15921;52.034;20.650;2024-03-25T05:54:14;4.70;99.90
28767;DHT22;15921;52.034;20.650;2024-03-25T05:56:40;4.80;99.90
28767;DHT22;15921;52.034;20.650;2024-03-25T05:59:06;4.80;99.90
28767;DHT22;15921;52.034;20.650;2024-03-25T06:01:32;4.90;99.90
28767;DHT22;15921;52.034;20.650;2024-03-25T06:03:59;5.00;99.90
28767;DHT22;15921;52.034;20.650;2024-03-25T06:06:25;5.10;99.90
28767;DHT22;15921;52.034;20.650;2024-03-25T06:08:50;5.10;99.90
28767;DHT22;15921;52.034;20.650;2024-03-25T06:11:16;5.10;99.90
28767;DHT22;15921;52.034;20.650;2024-03-25T06:13:46;5.10;99.90
28767;DHT22;15921;52.034;20.650;2024-03-25T06:16:13;5.20;99.90
28767;DHT22;15921;52.034;20.650;2024-03-25T06:18:39;5.30;99.90
28767;DHT22;15921;52.034;20.650;2024-03-25T06:21:05;5.40;99.90
28767;DHT22;15921;52.034;20.650;2024-03-25T06:23:31;5.50;99.90
28767;DHT22;15921;52.034;20.650;2024-03-25T06:25:57;5.70;99.90
28767;DHT22;15921;52.034;20.650;2024-03-25T06:28:23;5.80;99.90
28767;DHT22;15921;52.034;20.650;2024-03-25T06:30:50;5.90;99.90
28767;DHT22;15921;52.034;20.650;2024-03-25T06:33:34;6.00;99.90
28767;DHT22;15921;52.034;20.650;2024-03-25T06:36:19;6.20;99.90
28767;DHT22;15921;52.034;20.650;2024-03-25T06:38:45;6.30;99.90
28767;DHT22;15921;52.034;20.650;2024-03-25T06:41:11;6.40;99.90
28767;DHT22;15921;52.034;20.650;2024-03-25T06:43:37;6.50;99.90
28767;DHT22;15921;52.034;20.650;2024-03-25T06:46:06;6.50;99.90
28767;DHT22;15921;52.034;20.650;2024-03-25T06:48:33;6.70;99.90
28767;DHT22;15921;52.034;20.650;2024-03-25T06:51:00;6.90;99.90
28767;DHT22;15921;52.034;20.650;2024-03-25T06:53:28;7.10;99.90
28767;DHT22;15921;52.034;20.650;2024-03-25T06:55:58;7.20;99.90
28767;DHT22;15921;52.034;20.650;2024-03-25T06:58:26;7.30;99.90
28767;DHT22;15921;52.034;20.650;2024-03-25T07:00:52;7.40;99.90
28767;DHT22;15921;52.034;20.650;2024-03-25T07:03:19;7.50;99.90
28767;DHT22;15921;52.034;20.650;2024-03-25T07:05:46;7.60;99.90
28767;DHT22;15921;52.034;20.650;2024-03-25T07:08:12;7.80;99.90
28767;DHT22;15921;52.034;20.650;2024-03-25T07:10:38;8.00;99.90
28767;DHT22;15921;52.034;20.650;2024-03-25T07:13:06;8.10;99.90
28767;DHT22;15921;52.034;20.650;2024-03-25T07:15:32;8.10;99.90
28767;DHT22;15921;52.034;20.650;2024-03-25T07:17:58;8.20;99.90
28767;DHT22;15921;52.034;20.650;2024-03-25T07:20:24;8.20;99.90
28767;DHT22;15921;52.034;20.650;2024-03-25T07:22:50;8.20;99.90
28767;DHT22;15921;52.034;20.650;2024-03-25T07:25:15;8.20;99.90
28767;DHT22;15921;52.034;20.650;2024-03-25T07:27:41;8.10;99.90
28767;DHT22;15921;52.034;20.650;2024-03-25T07:30:10;8.10;99.90
28767;DHT22;15921;52.034;20.650;2024-03-25T07:32:36;8.10;99.90
28767;DHT22;15921;52.034;20.650;2024-03-25T07:35:01;8.10;99.90
28767;DHT22;15921;52.034;20.650;2024-03-25T07:37:27;8.20;99.90
28767;DHT22;15921;52.034;20.650;2024-03-25T07:39:53;8.30;99.90
28767;DHT22;15921;52.034;20.650;2024-03-25T07:42:18;8.50;99.90
28767;DHT22;15921;52.034;20.650;2024-03-25T07:44:44;8.70;99.90
28767;DHT22;15921;52.034;20.650;2024-03-25T07:47:10;8.70;99.90
28767;DHT22;15921;52.034;20.650;2024-03-25T07:49:35;8.70;99.90
28767;DHT22;15921;52.034;20.650;2024-03-25T07:52:01;8.80;99.90
28767;DHT22;15921;52.034;20.650;2024-03-25T07:54:27;8.70;99.90
28767;DHT22;15921;52.034;20.650;2024-03-25T07:56:53;8.60;99.90
28767;DHT22;15921;52.034;20.650;2024-03-25T07:59:19;8.50;99.90
28767;DHT22;15921;52.034;20.650;2024-03-25T08:01:45;8.50;99.90
28767;DHT22;15921;52.034;20.650;2024-03-25T08:04:10;8.60;99.90
28767;DHT22;15921;52.034;20.650;2024-03-25T08:06:36;8.80;99.90
28767;DHT22;15921;52.034;20.650;2024-03-25T08:09:02;8.90;99.90
28767;DHT22;15921;52.034;20.650;2024-03-25T08:11:31;9.00;99.90
28767;DHT22;15921;52.034;20.650;2024-03-25T08:13:57;9.10;99.90
28767;DHT22;15921;52.034;20.650;2024-03-25T08:16:23;9.20;99.80
28767;DHT22;15921;52.034;20.650;2024-03-25T08:18:48;9.20;99.90
28767;DHT22;15921;52.034;20.650;2024-03-25T08:21:15;9.30;99.90
28767;DHT22;15921;52.034;20.650;2024-03-25T08:23:41;9.30;99.80
28767;DHT22;15921;52.034;20.650;2024-03-25T08:26:07;9.20;99.40
28767;DHT22;15921;52.034;20.650;2024-03-25T08:28:34;9.30;99.50
28767;DHT22;15921;52.034;20.650;2024-03-25T08:30:59;9.40;99.90
28767;DHT22;15921;52.034;20.650;2024-03-25T08:33:25;9.40;99.30
28767;DHT22;15921;52.034;20.650;2024-03-25T08:35:51;9.50;99.30
28767;DHT22;15921;52.034;20.650;2024-03-25T08:38:17;9.70;99.20
28767;DHT22;15921;52.034;20.650;2024-03-25T08:40:42;9.90;98.70
28767;DHT22;15921;52.034;20.650;2024-03-25T08:43:08;10.20;98.20
28767;DHT22;15921;52.034;20.650;2024-03-25T08:45:34;10.30;97.30
28767;DHT22;15921;52.034;20.650;2024-03-25T08:47:59;10.30;97.10
28767;DHT22;15921;52.034;20.650;2024-03-25T08:50:25;10.20;96.80
28767;DHT22;15921;52.034;20.650;2024-03-25T08:52:50;10.30;96.40
28767;DHT22;15921;52.034;20.650;2024-03-25T08:55:16;10.30;96.70
28767;DHT22;15921;52.034;20.650;2024-03-25T08:57:42;10.30;95.90
28767;DHT22;15921;52.034;20.650;2024-03-25T09:00:15;10.10;96.10
28767;DHT22;15921;52.034;20.650;2024-03-25T09:02:41;10.00;95.80
28767;DHT22;15921;52.034;20.650;2024-03-25T09:05:07;9.90;95.70
28767;DHT22;15921;52.034;20.650;2024-03-25T09:07:33;9.90;95.70
28767;DHT22;15921;52.034;20.650;2024-03-25T09:09:59;10.00;95.50
28767;DHT22;15921;52.034;20.650;2024-03-25T09:12:43;10.10;95.00
28767;DHT22;15921;52.034;20.650;2024-03-25T09:15:09;10.30;94.50
28767;DHT22;15921;52.034;20.650;2024-03-25T09:17:36;10.40;93.40
28767;DHT22;15921;52.034;20.650;2024-03-25T09:20:02;10.60;92.80
28767;DHT22;15921;52.034;20.650;2024-03-25T09:22:30;10.60;92.40
28767;DHT22;15921;52.034;20.650;2024-03-25T09:24:55;10.70;92.30
28767;DHT22;15921;52.034;20.650;2024-03-25T09:27:21;10.80;91.90
28767;DHT22;15921;52.034;20.650;2024-03-25T09:29:47;10.90;91.00
28767;DHT22;15921;52.034;20.650;2024-03-25T09:32:12;11.00;90.90
28767;DHT22;15921;52.034;20.650;2024-03-25T09:34:38;11.20;90.70
28767;DHT22;15921;52.034;20.650;2024-03-25T09:37:04;11.40;90.60
28767;DHT22;15921;52.034;20.650;2024-03-25T09:39:29;11.60;90.00
28767;DHT22;15921;52.034;20.650;2024-03-25T09:41:56;11.60;89.60
28767;DHT22;15921;52.034;20.650;2024-03-25T09:44:24;11.70;89.60
28767;DHT22;15921;52.034;20.650;2024-03-25T09:46:51;11.80;89.40
28767;DHT22;15921;52.034;20.650;2024-03-25T09:49:17;12.00;88.80
28767;DHT22;15921;52.034;20.650;2024-03-25T09:51:43;12.10;87.90
28767;DHT22;15921;52.034;20.650;2024-03-25T09:54:09;12.10;87.00
28767;DHT22;15921;52.034;20.650;2024-03-25T09:56:36;12.00;86.20
28767;DHT22;15921;52.034;20.650;2024-03-25T09:59:02;12.10;87.30
28767;DHT22;15921;52.034;20.650;2024-03-25T10:01:29;12.30;87.00
28767;DHT22;15921;52.034;20.650;2024-03-25T10:03:55;12.30;86.60
28767;DHT22;15921;52.034;20.650;2024-03-25T10:06:20;12.50;86.10
28767;DHT22;15921;52.034;20.650;2024-03-25T10:08:46;12.70;84.70
28767;DHT22;15921;52.034;20.650;2024-03-25T10:11:12;12.90;83.50
28767;DHT22;15921;52.034;20.650;2024-03-25T10:13:40;12.90;82.10
28767;DHT22;15921;52.034;20.650;2024-03-25T10:16:07;13.00;82.30
28767;DHT22;15921;52.034;20.650;2024-03-25T10:18:33;12.90;80.90
28767;DHT22;15921;52.034;20.650;2024-03-25T10:20:59;12.80;82.30
28767;DHT22;15921;52.034;20.650;2024-03-25T10:23:25;12.90;82.30
28767;DHT22;15921;52.034;20.650;2024-03-25T10:25:53;13.00;81.00
28767;DHT22;15921;52.034;20.650;2024-03-25T10:28:19;13.00;80.80
28767;DHT22;15921;52.034;20.650;2024-03-25T10:30:45;13.30;81.20
28767;DHT22;15921;52.034;20.650;2024-03-25T10:33:11;13.30;80.70
28767;DHT22;15921;52.034;20.650;2024-03-25T10:35:39;13.40;79.80
28767;DHT22;15921;52.034;20.650;2024-03-25T10:38:06;13.30;79.70
28767;DHT22;15921;52.034;20.650;2024-03-25T10:40:34;13.20;79.90
28767;DHT22;15921;52.034;20.650;2024-03-25T10:43:05;13.30;79.90
28767;DHT22;15921;52.034;20.650;2024-03-25T10:45:35;13.20;79.30
28767;DHT22;15921;52.034;20.650;2024-03-25T10:48:24;13.10;79.40
28767;DHT22;15921;52.034;20.650;2024-03-25T10:50:52;13.20;78.40
28767;DHT22;15921;52.034;20.650;2024-03-25T10:53:19;13.30;79.10
28767;DHT22;15921;52.034;20.650;2024-03-25T10:55:50;13.40;78.40
28767;DHT22;15921;52.034;20.650;2024-03-25T10:58:17;13.30;78.50
28767;DHT22;15921;52.034;20.650;2024-03-25T11:00:45;13.00;79.20
28767;DHT22;15921;52.034;20.650;2024-03-25T11:03:11;12.70;79.70
28767;DHT22;15921;52.034;20.650;2024-03-25T11:05:38;12.40;80.40
28767;DHT22;15921;52.034;20.650;2024-03-25T11:08:14;12.30;80.90
28767;DHT22;15921;52.034;20.650;2024-03-25T11:10:50;11.90;81.40
28767;DHT22;15921;52.034;20.650;2024-03-25T11:13:19;11.70;82.90
28767;DHT22;15921;52.034;20.650;2024-03-25T11:15:46;11.30;83.60
28767;DHT22;15921;52.034;20.650;2024-03-25T11:18:16;11.20;84.90
28767;DHT22;15921;52.034;20.650;2024-03-25T11:20:43;11.10;85.30
28767;DHT22;15921;52.034;20.650;2024-03-25T11:23:10;11.00;85.50
28767;DHT22;15921;52.034;20.650;2024-03-25T11:25:36;10.80;86.20
28767;DHT22;15921;52.034;20.650;2024-03-25T11:28:03;10.70;86.90
28767;DHT22;15921;52.034;20.650;2024-03-25T11:30:29;10.60;87.40
28767;DHT22;15921;52.034;20.650;2024-03-25T11:32:57;10.60;88.20
28767;DHT22;15921;52.034;20.650;2024-03-25T11:35:23;10.80;88.40
28767;DHT22;15921;52.034;20.650;2024-03-25T11:37:50;11.00;87.90
28767;DHT22;15921;52.034;20.650;2024-03-25T11:40:17;11.60;87.10
28767;DHT22;15921;52.034;20.650;2024-03-25T11:42:44;12.10;85.50
28767;DHT22;15921;52.034;20.650;2024-03-25T11:45:16;12.70;83.50
28767;DHT22;15921;52.034;20.650;2024-03-25T11:47:43;12.90;81.90
28767;DHT22;15921;52.034;20.650;2024-03-25T11:50:13;13.00;81.30
28767;DHT22;15921;52.034;20.650;2024-03-25T11:52:39;13.00;81.60
28767;DHT22;15921;52.034;20.650;2024-03-25T11:55:05;13.20;82.00
28767;DHT22;15921;52.034;20.650;2024-03-25T11:57:31;13.30;82.20
28767;DHT22;15921;52.034;20.650;2024-03-25T11:59:59;13.40;81.30
28767;DHT22;15921;52.034;20.650;2024-03-25T12:02:25;13.30;80.80
28767;DHT22;15921;52.034;20.650;2024-03-25T12:04:51;13.70;80.20
28767;DHT22;15921;52.034;20.650;2024-03-25T12:07:17;14.10;79.40
28767;DHT22;15921;52.034;20.650;2024-03-25T12:09:43;14.40;78.30
28767;DHT22;15921;52.034;20.650;2024-03-25T12:12:28;14.60;77.40
28767;DHT22;15921;52.034;20.650;2024-03-25T12:14:54;14.90;76.30
28767;DHT22;15921;52.034;20.650;2024-03-25T12:17:21;16.30;75.60
28767;DHT22;15921;52.034;20.650;2024-03-25T12:20:02;17.40;71.40
28767;DHT22;15921;52.034;20.650;2024-03-25T12:22:30;17.50;68.40
28767;DHT22;15921;52.034;20.650;2024-03-25T12:25:04;17.00;69.60
28767;DHT22;15921;52.034;20.650;2024-03-25T12:27:38;16.90;70.10
28767;DHT22;15921;52.034;20.650;2024-03-25T12:30:08;17.30;70.50
28767;DHT22;15921;52.034;20.650;2024-03-25T12:35:08;19.30;63.30
28767;DHT22;15921;52.034;20.650;2024-03-25T12:37:39;20.40;59.90
28767;DHT22;15921;52.034;20.650;2024-03-25T12:40:07;19.90;59.80
28767;DHT22;15921;52.034;20.650;2024-03-25T12:42:33;19.50;60.70
28767;DHT22;15921;52.034;20.650;2024-03-25T12:44:59;21.20;58.10
28767;DHT22;15921;52.034;20.650;2024-03-25T12:47:25;22.80;55.80
28767;DHT22;15921;52.034;20.650;2024-03-25T12:49:51;23.90;53.40
28767;DHT22;15921;52.034;20.650;2024-03-25T12:52:17;24.40;52.30
28767;DHT22;15921;52.034;20.650;2024-03-25T12:54:43;25.50;50.10
28767;DHT22;15921;52.034;20.650;2024-03-25T12:57:09;25.80;48.90
28767;DHT22;15921;52.034;20.650;2024-03-25T12:59:35;26.10;48.80
28767;DHT22;15921;52.034;20.650;2024-03-25T13:02:00;26.70;47.40
28767;DHT22;15921;52.034;20.650;2024-03-25T13:04:26;26.10;47.40
28767;DHT22;15921;52.034;20.650;2024-03-25T13:06:52;26.70;46.60
28767;DHT22;15921;52.034;20.650;2024-03-25T13:09:18;27.40;44.70
28767;DHT22;15921;52.034;20.650;2024-03-25T13:11:44;27.10;44.00
28767;DHT22;15921;52.034;20.650;2024-03-25T13:14:13;27.50;44.10
28767;DHT22;15921;52.034;20.650;2024-03-25T13:16:41;27.40;42.40
28767;DHT22;15921;52.034;20.650;2024-03-25T13:19:07;27.30;42.90
28767;DHT22;15921;52.034;20.650;2024-03-25T13:21:33;27.90;42.10
28767;DHT22;15921;52.034;20.650;2024-03-25T13:23:59;28.00;40.60
28767;DHT22;15921;52.034;20.650;2024-03-25T13:26:25;25.50;42.00
28767;DHT22;15921;52.034;20.650;2024-03-25T13:28:51;24.80;44.10
28767;DHT22;15921;52.034;20.650;2024-03-25T13:31:17;25.30;43.30
28767;DHT22;15921;52.034;20.650;2024-03-25T13:33:43;25.80;43.80
28767;DHT22;15921;52.034;20.650;2024-03-25T13:36:08;24.20;43.30
28767;DHT22;15921;52.034;20.650;2024-03-25T13:38:34;21.50;46.60
28767;DHT22;15921;52.034;20.650;2024-03-25T13:41:01;19.10;50.40
28767;DHT22;15921;52.034;20.650;2024-03-25T13:43:27;18.30;53.10
28767;DHT22;15921;52.034;20.650;2024-03-25T13:45:52;17.90;53.90
28767;DHT22;15921;52.034;20.650;2024-03-25T13:48:18;19.10;53.70
28767;DHT22;15921;52.034;20.650;2024-03-25T13:50:44;20.30;52.00
28767;DHT22;15921;52.034;20.650;2024-03-25T13:53:10;21.30;50.10
28767;DHT22;15921;52.034;20.650;2024-03-25T13:55:36;22.50;48.60
28767;DHT22;15921;52.034;20.650;2024-03-25T13:58:02;24.00;46.70
28767;DHT22;15921;52.034;20.650;2024-03-25T14:00:28;22.10;47.30
28767;DHT22;15921;52.034;20.650;2024-03-25T14:02:54;20.00;49.70
28767;DHT22;15921;52.034;20.650;2024-03-25T14:05:20;18.10;52.70
28767;DHT22;15921;52.034;20.650;2024-03-25T14:07:46;17.50;54.90
28767;DHT22;15921;52.034;20.650;2024-03-25T14:10:12;17.30;55.10
28767;DHT22;15921;52.034;20.650;2024-03-25T14:12:38;19.10;53.90
28767;DHT22;15921;52.034;20.650;2024-03-25T14:15:04;21.50;50.50
28767;DHT22;15921;52.034;20.650;2024-03-25T14:17:32;22.60;48.30
28767;DHT22;15921;52.034;20.650;2024-03-25T14:19:57;24.00;46.80
28767;DHT22;15921;52.034;20.650;2024-03-25T14:22:23;25.10;45.40
28767;DHT22;15921;52.034;20.650;2024-03-25T14:24:49;25.10;44.00
28767;DHT22;15921;52.034;20.650;2024-03-25T14:27:15;23.50;44.70
28767;DHT22;15921;52.034;20.650;2024-03-25T14:29:41;21.10;47.60
28767;DHT22;15921;52.034;20.650;2024-03-25T14:32:08;19.30;50.70
28767;DHT22;15921;52.034;20.650;2024-03-25T14:34:34;17.70;53.60
28767;DHT22;15921;52.034;20.650;2024-03-25T14:36:59;16.60;56.00
28767;DHT22;15921;52.034;20.650;2024-03-25T14:39:27;15.70;57.70
28767;DHT22;15921;52.034;20.650;2024-03-25T14:41:53;14.90;59.40
28767;DHT22;15921;52.034;20.650;2024-03-25T14:44:18;14.30;61.00
28767;DHT22;15921;52.034;20.650;2024-03-25T14:46:44;13.80;62.60
28767;DHT22;15921;52.034;20.650;2024-03-25T14:49:10;13.50;64.20
28767;DHT22;15921;52.034;20.650;2024-03-25T14:51:35;13.20;65.20
28767;DHT22;15921;52.034;20.650;2024-03-25T14:54:01;12.90;66.10
28767;DHT22;15921;52.034;20.650;2024-03-25T14:56:28;12.70;67.20
28767;DHT22;15921;52.034;20.650;2024-03-25T14:58:55;12.40;68.10
28767;DHT22;15921;52.034;20.650;2024-03-25T15:01:21;12.20;69.40
28767;DHT22;15921;52.034;20.650;2024-03-25T15:03:46;11.90;70.50
28767;DHT22;15921;52.034;20.650;2024-03-25T15:06:13;11.80;70.80
28767;DHT22;15921;52.034;20.650;2024-03-25T15:08:38;11.60;71.40
28767;DHT22;15921;52.034;20.650;2024-03-25T15:11:05;11.40;72.20
28767;DHT22;15921;52.034;20.650;2024-03-25T15:13:31;11.30;72.70
28767;DHT22;15921;52.034;20.650;2024-03-25T15:15:57;11.40;73.20
28767;DHT22;15921;52.034;20.650;2024-03-25T15:18:23;11.50;73.40
28767;DHT22;15921;52.034;20.650;2024-03-25T15:21:00;11.70;73.40
28767;DHT22;15921;52.034;20.650;2024-03-25T15:23:26;11.70;73.40